地図

経路データ

SID SEASON NUMBER BASIN SUBBASIN NAME ISO_TIME NATURE LAT LON WMO_WIND WMO_PRES WMO_AGENCY TRACK_TYPE DIST2LAND LANDFALL IFLAG USA_AGENCY USA_ATCF_ID USA_LAT USA_LON USA_RECORD USA_STATUS USA_WIND USA_PRES USA_SSHS USA_R34_NE USA_R34_SE USA_R34_SW USA_R34_NW USA_R50_NE USA_R50_SE USA_R50_SW USA_R50_NW USA_R64_NE USA_R64_SE USA_R64_SW USA_R64_NW USA_POCI USA_ROCI USA_RMW USA_EYE TOKYO_LAT TOKYO_LON TOKYO_GRADE TOKYO_WIND TOKYO_PRES TOKYO_R50_DIR TOKYO_R50_LONG TOKYO_R50_SHORT TOKYO_R30_DIR TOKYO_R30_LONG TOKYO_R30_SHORT TOKYO_LAND CMA_LAT CMA_LON CMA_CAT CMA_WIND CMA_PRES HKO_LAT HKO_LON HKO_CAT HKO_WIND HKO_PRES NEWDELHI_LAT NEWDELHI_LON NEWDELHI_GRADE NEWDELHI_WIND NEWDELHI_PRES NEWDELHI_CI NEWDELHI_DP NEWDELHI_POCI REUNION_LAT REUNION_LON REUNION_TYPE REUNION_WIND REUNION_PRES REUNION_TNUM REUNION_CI REUNION_RMW REUNION_R34_NE REUNION_R34_SE REUNION_R34_SW REUNION_R34_NW REUNION_R50_NE REUNION_R50_SE REUNION_R50_SW REUNION_R50_NW REUNION_R64_NE REUNION_R64_SE REUNION_R64_SW REUNION_R64_NW BOM_LAT BOM_LON BOM_TYPE BOM_WIND BOM_PRES BOM_TNUM BOM_CI BOM_RMW BOM_R34_NE BOM_R34_SE BOM_R34_SW BOM_R34_NW BOM_R50_NE BOM_R50_SE BOM_R50_SW BOM_R50_NW BOM_R64_NE BOM_R64_SE BOM_R64_SW BOM_R64_NW BOM_ROCI BOM_POCI BOM_EYE BOM_POS_METHOD BOM_PRES_METHOD NADI_LAT NADI_LON NADI_CAT NADI_WIND NADI_PRES WELLINGTON_LAT WELLINGTON_LON WELLINGTON_WIND WELLINGTON_PRES DS824_LAT DS824_LON DS824_STAGE DS824_WIND DS824_PRES TD9636_LAT TD9636_LON TD9636_STAGE TD9636_WIND TD9636_PRES TD9635_LAT TD9635_LON TD9635_WIND TD9635_PRES TD9635_ROCI NEUMANN_LAT NEUMANN_LON NEUMANN_CLASS NEUMANN_WIND NEUMANN_PRES MLC_LAT MLC_LON MLC_CLASS MLC_WIND MLC_PRES USA_GUST BOM_GUST BOM_GUST_PER REUNION_GUST REUNION_GUST_PER USA_SEAHGT USA_SEARAD_NE USA_SEARAD_SE USA_SEARAD_SW USA_SEARAD_NW STORM_SPEED STORM_DIR
1976240N21083 1976 101 NI BB NOT_NAMED 1976-08-27 00:00:00 TS 20.6000 82.7000 main 0 0 O________OO___ jtwc_io IO061976 20.6000 82.7000 -1 20.6000 82.7000 TC 25 20.6000 82.7000 1 16 300
1976240N21083 1976 101 NI BB NOT_NAMED 1976-08-27 03:00:00 TS 21.0077 81.9442 main 0 0 P________PP___ IO061976 21.0133 81.9284 -1 21.0133 81.9284 TC 25 20.9967 81.9757 1 16 300
1976240N21083 1976 101 NI BB NOT_NAMED 1976-08-27 06:00:00 TS 21.3911 81.2231 main 0 0 O________OP___ jtwc_io IO061976 21.4000 81.2000 -1 21.4000 81.2000 TC 25 21.3733 81.2693 1 15 299
1976240N21083 1976 101 NI BB NOT_NAMED 1976-08-27 09:00:00 TS 21.7292 80.5709 main 0 0 P________PP___ IO061976 21.7372 80.5548 -1 21.7372 80.5548 TC 25 21.7132 80.6031 1 13 298
1976240N21083 1976 101 NI BB NOT_NAMED 1976-08-27 12:00:00 TS 22.0000 80.0000 main 0 0 O________OO___ jtwc_io IO061976 22.0000 80.0000 -1 22.0000 80.0000 TC 25 22.0000 80.0000 1 11 295
1976240N21083 1976 101 NI BB NOT_NAMED 1976-08-27 15:00:00 TS 22.1844 79.5099 main 0 0 P________PP___ IO061976 22.1647 79.5270 -1 22.1647 79.5270 TC 25 22.2240 79.4755 1 9 291
1976240N21083 1976 101 NI BB NOT_NAMED 1976-08-27 18:00:00 TS 22.3336 79.0718 main 0 0 O________OP___ jtwc_io IO061976 22.3000 79.1000 -1 22.3000 79.1000 TC 25 22.4009 79.0155 1 9 292
1976240N21083 1976 101 NI BB NOT_NAMED 1976-08-27 21:00:00 TS 22.5174 78.6276 main 0 0 P________PP___ IO061976 22.4999 78.6425 -1 22.4999 78.6425 TC 25 22.5524 78.5978 1 9 294
1976240N21083 1976 101 NI BB NOT_NAMED 1976-08-28 00:00:00 TS 22.7000 78.2000 main 0 0 O________OO___ jtwc_io IO061976 22.7000 78.2000 -1 22.7000 78.2000 TC 25 22.7000 78.2000 1 8 294
1976240N21083 1976 101 NI AS NOT_NAMED 1976-08-28 03:00:00 TS 22.8620 77.7954 main 0 0 P________PP___ IO061976 22.8498 77.7923 -1 22.8498 77.7923 TC 25 22.8864 77.8016 1 8 294
1976240N21083 1976 101 NI AS NOT_NAMED 1976-08-28 06:00:00 TS 23.0238 77.4049 main 0 0 O________OP___ jtwc_io IO061976 23.0000 77.4000 -1 23.0000 77.4000 TC 25 23.0714 77.4147 1 8 296
1976240N21083 1976 101 NI AS NOT_NAMED 1976-08-28 09:00:00 TS 23.2151 77.0168 main 0 0 P________PP___ IO061976 23.1998 77.0150 -1 23.1998 77.0150 TC 25 23.2457 77.0204 1 8 297
1976240N21083 1976 101 NI AS NOT_NAMED 1976-08-28 12:00:00 TS 23.4000 76.6000 main 0 0 O________OO___ jtwc_io IO061976 23.4000 76.6000 -1 23.4000 76.6000 TC 25 23.4000 76.6000 1 9 293
1976240N21083 1976 101 NI AS NOT_NAMED 1976-08-28 15:00:00 TS 23.5609 76.1196 main 0 0 P________PP___ IO061976 23.5725 76.1150 -1 23.5725 76.1150 TC 25 23.5377 76.1287 1 10 287
1976240N21083 1976 101 NI AS NOT_NAMED 1976-08-28 18:00:00 TS 23.6841 75.6100 main 0 0 O________OP___ jtwc_io IO061976 23.7000 75.6000 -1 23.7000 75.6000 TC 25 23.6524 75.6301 1 10 282
1976240N21083 1976 101 NI AS NOT_NAMED 1976-08-28 21:00:00 TS 23.7618 75.1054 main 0 0 P________PP___ IO061976 23.7723 75.0999 -1 23.7723 75.0999 TC 25 23.7408 75.1163 1 9 277
1976240N21083 1976 101 NI AS NOT_NAMED 1976-08-29 00:00:00 TS 23.8000 74.6000 main 0 0 O________OO___ jtwc_io IO061976 23.8000 74.6000 -1 23.8000 74.6000 TC 25 23.8000 74.6000 1 9 273
1976240N21083 1976 101 NI AS NOT_NAMED 1976-08-29 03:00:00 TS 23.8159 74.0876 main 0 0 P________PP___ IO061976 23.8073 74.0999 -1 23.8073 74.0999 TC 25 23.8330 74.0630 1 9 271
1976240N21083 1976 101 NI AS NOT_NAMED 1976-08-29 06:00:00 TS 23.8126 73.5773 main 0 0 O________OP___ jtwc_io IO061976 23.8000 73.6000 -1 23.8000 73.6000 TC 25 23.8379 73.5320 1 9 270
1976240N21083 1976 101 NI AS NOT_NAMED 1976-08-29 09:00:00 TS 23.8080 73.0583 main 0 0 P________PP___ IO061976 23.8001 73.0700 -1 23.8001 73.0700 TC 25 23.8238 73.0350 1 9 269
1976240N21083 1976 101 NI AS NOT_NAMED 1976-08-29 12:00:00 TS 23.8000 72.6000 main 0 0 O________OO___ jtwc_io IO061976 23.8000 72.6000 -1 23.8000 72.6000 TC 25 23.8000 72.6000 1 7 269
1976240N21083 1976 101 NI AS NOT_NAMED 1976-08-29 15:00:00 TS 23.7999 72.2672 main 0 0 P________PP___ IO061976 23.8073 72.2626 -1 23.8073 72.2626 TC 25 23.7851 72.2766 1 5 269
1976240N21083 1976 101 NI AS NOT_NAMED 1976-08-29 18:00:00 TS 23.7878 72.0042 main 0 0 O________OP___ jtwc_io IO061976 23.8000 72.0000 -1 23.8000 72.0000 TC 25 23.7635 72.0126 1 5 264
1976240N21083 1976 101 NI AS NOT_NAMED 1976-08-29 21:00:00 TS 23.7499 71.7658 main 0 0 P________PP___ IO061976 23.7573 71.7650 -1 23.7573 71.7650 TC 25 23.7353 71.7673 1 5 259
1976240N21083 1976 101 NI AS NOT_NAMED 1976-08-30 00:00:00 TS 23.7000 71.5000 main 0 0 O________OO___ jtwc_io IO061976 23.7000 71.5000 -1 23.7000 71.5000 TC 25 23.7000 71.5000 1 6 261
1976240N21083 1976 101 NI AS NOT_NAMED 1976-08-30 03:00:00 TS 23.6539 71.1225 main 0 0 P________PP___ IO061976 23.6501 71.1150 -1 23.6501 71.1150 TC 25 23.6615 71.1375 1 7 262
1976240N21083 1976 101 NI AS NOT_NAMED 1976-08-30 06:00:00 TS 23.6051 70.7167 main 0 0 O________OP___ jtwc_io IO061976 23.6000 70.7000 -1 23.6000 70.7000 TC 25 23.6154 70.7500 1 7 262
1976240N21083 1976 101 NI AS NOT_NAMED 1976-08-30 09:00:00 TS 23.5588 70.3442 main 0 0 P________PP___ IO061976 23.5574 70.3351 -1 23.5574 70.3351 TC 25 23.5615 70.3625 1 7 261
1976240N21083 1976 101 NI AS NOT_NAMED 1976-08-30 12:00:00 TS 23.5000 70.0000 main 0 0 O________OO___ jtwc_io IO061976 23.5000 70.0000 -1 23.5000 70.0000 TC 25 23.5000 70.0000 1 6 256
1976240N21083 1976 101 NI AS NOT_NAMED 1976-08-30 15:00:00 TS 23.4038 69.6819 main 0 0 P________PP___ IO061976 23.3999 69.6849 -1 23.3999 69.6849 TC 25 23.4117 69.6758 1 6 251
1976240N21083 1976 101 NI AS NOT_NAMED 1976-08-30 18:00:00 TS 23.3066 69.3941 main 0 0 O________OP___ jtwc_io IO061976 23.3000 69.4000 -1 23.3000 69.4000 TC 25 23.3198 69.3822 1 5 252
1976240N21083 1976 101 NI AS NOT_NAMED 1976-08-30 21:00:00 TS 23.2327 69.1259 main 0 0 P________PP___ IO061976 23.2275 69.1275 -1 23.2275 69.1275 TC 30 23.2430 69.1226 1 5 257
1976240N21083 1976 101 NI AS NOT_NAMED 1976-08-31 00:00:00 TS 23.2000 68.9000 main 0 0 O________OO___ jtwc_io IO061976 23.2000 68.9000 -1 23.2000 68.9000 TC 35 23.2000 68.9000 2 3 269
1976240N21083 1976 101 NI AS NOT_NAMED 1976-08-31 03:00:00 TS 23.2263 68.7457 main 0 0 P________PP___ IO061976 23.2349 68.7350 -1 23.2349 68.7350 TC 35 23.2092 68.7669 2 3 288
1976240N21083 1976 101 NI AS NOT_NAMED 1976-08-31 06:00:00 TS 23.2846 68.6200 main 10 10 O________OP___ jtwc_io IO061976 23.3000 68.6000 -1 23.3000 68.6000 TC 35 23.2537 68.6599 2 2 296
1976240N21083 1976 101 NI AS NOT_NAMED 1976-08-31 09:00:00 TS 23.3353 68.5042 main 15 10 P________PP___ IO061976 23.3423 68.4949 -1 23.3423 68.4949 TC 35 23.3214 68.5229 2 3 291
1976240N21083 1976 101 NI AS NOT_NAMED 1976-08-31 12:00:00 TS 23.4000 68.3000 main 15 15 O________OO___ jtwc_io IO061976 23.4000 68.3000 -1 23.4000 68.3000 TC 35 23.4000 68.3000 2 6 286
1976240N21083 1976 101 NI AS NOT_NAMED 1976-08-31 15:00:00 TS 23.4951 67.9027 main 32 22 P________PP___ IO061976 23.5001 67.9026 -1 23.5001 67.9026 TC 35 23.4850 67.9028 2 8 283
1976240N21083 1976 101 NI AS NOT_NAMED 1976-08-31 18:00:00 TS 23.5913 67.4061 main 30 30 O________OP___ jtwc_io IO061976 23.6000 67.4000 -1 23.6000 67.4000 TC 35 23.5738 67.4183 2 9 280
1976240N21083 1976 101 NI AS NOT_NAMED 1976-08-31 21:00:00 TS 23.6602 66.8949 main 60 60 P________PP___ IO061976 23.6650 66.8925 -1 23.6650 66.8925 TC 35 23.6506 66.8997 2 9 277
1976240N21083 1976 101 NI AS NOT_NAMED 1976-09-01 00:00:00 TS 23.7000 66.4000 main 107 107 O________OO___ jtwc_io IO061976 23.7000 66.4000 -1 23.7000 66.4000 TC 35 23.7000 66.4000 2 8 274
1976240N21083 1976 101 NI AS NOT_NAMED 1976-09-01 03:00:00 TS 23.7151 65.9742 main 141 141 P________PP___ IO061976 23.7148 65.9775 -1 23.7148 65.9775 TC 30 23.7157 65.9676 2 7 270
1976240N21083 1976 101 NI AS NOT_NAMED 1976-09-01 06:00:00 TS 23.7008 65.5891 main 165 165 O________OP___ jtwc_io IO061976 23.7000 65.6000 -1 23.7000 65.6000 TC 25 23.7023 65.5672 2 7 265
1976240N21083 1976 101 NI AS NOT_NAMED 1976-09-01 09:00:00 TS 23.6592 65.2261 main 175 175 P________PP___ IO061976 23.6574 65.2350 -1 23.6574 65.2350 TC 25 23.6627 65.2083 2 6 261
1976240N21083 1976 101 NI AS NOT_NAMED 1976-09-01 12:00:00 TS 23.6000 64.9000 main 179 178 O________OO___ jtwc_io IO061976 23.6000 64.9000 -1 23.6000 64.9000 TC 25 23.6000 64.9000 1 6 261
1976240N21083 1976 101 NI AS NOT_NAMED 1976-09-01 15:00:00 TS 23.5680 64.5698 main 178 178 P________PP___ IO061976 23.5650 64.5626 -1 23.5650 64.5626 TC 25 23.5740 64.5842 1 6 260
1976240N21083 1976 101 NI AS NOT_NAMED 1976-09-01 18:00:00 TS 23.5065 64.3089 main 190 190 O________OP___ jtwc_io IO061976 23.5000 64.3000 -1 23.5000 64.3000 TC 25 23.5196 64.3266 1 4 247
1976240N21083 1976 101 NI AS NOT_NAMED 1976-09-01 21:00:00 TS 23.4034 64.1401 main 203 203 P________PP___ IO061976 23.4024 64.1323 -1 23.4024 64.1323 TC 25 23.4053 64.1557 1 4 212
1976240N21083 1976 101 NI AS NOT_NAMED 1976-09-02 00:00:00 TS 23.2000 64.1000 main 225 225 O________OO___ jtwc_io IO061976 23.2000 64.1000 -1 23.2000 64.1000 TC 25 23.2000 64.1000 1 6 177
1976240N21083 1976 101 NI AS NOT_NAMED 1976-09-02 03:00:00 TS 22.8365 64.1897 main 268 268 P________PP___ IO061976 22.8450 64.1976 -1 22.8450 64.1976 TC 25 22.8196 64.1741 1 9 162
1976240N21083 1976 101 NI AS NOT_NAMED 1976-09-02 06:00:00 TS 22.3858 64.3865 main 312 312 O________OP___ jtwc_io IO061976 22.4000 64.4000 -1 22.4000 64.4000 TC 25 22.3575 64.3595 1 10 157
1976240N21083 1976 101 NI AS NOT_NAMED 1976-09-02 09:00:00 TS 21.9055 64.6234 main 368 362 P________PP___ IO061976 21.9125 64.6277 -1 21.9125 64.6277 TC 25 21.8915 64.6149 1 10 152
1976240N21083 1976 101 NI AS NOT_NAMED 1976-09-02 12:00:00 TS 21.5000 64.9000 main 377 371 O________OO___ jtwc_io IO061976 21.5000 64.9000 -1 21.5000 64.9000 TC 25 21.5000 64.9000 1 8 139
1976240N21083 1976 101 NI AS NOT_NAMED 1976-09-02 15:00:00 TS 21.2880 65.1991 main 372 361 P________PP___ IO061976 21.2975 65.1998 -1 21.2975 65.1998 TC 25 21.2688 65.1978 1 7 120
1976240N21083 1976 101 NI AS NOT_NAMED 1976-09-02 18:00:00 TS 21.1744 65.5032 main 361 347 O________OP___ jtwc_io IO061976 21.2000 65.5000 -1 21.2000 65.5000 TC 25 21.1231 65.5095 1 6 112
1976240N21083 1976 101 NI AS NOT_NAMED 1976-09-02 21:00:00 TS 21.0653 65.7939 main 347 333 P________PP___ IO061976 21.0775 65.7950 -1 21.0775 65.7950 TC 25 21.0407 65.7916 1 5 111
1976240N21083 1976 101 NI AS NOT_NAMED 1976-09-03 00:00:00 TS 21.0000 66.0000 main 333 333 O________OO___ jtwc_io IO061976 21.0000 66.0000 -1 21.0000 66.0000 TC 25 21.0000 66.0000 1 2 110
1976240N21083 1976 101 NI AS NOT_NAMED 1976-09-03 03:00:00 TS 20.9819 66.0417 main 333 333 P________PP___ IO061976 20.9849 66.0374 -1 20.9849 66.0374 TC 25 20.9759 66.0503 1 0 0
1976240N21083 1976 101 NI AS NOT_NAMED 1976-09-03 06:00:00 TS 20.9949 66.0099 main 333 333 O________OP___ jtwc_io IO061976 21.0000 66.0000 -1 21.0000 66.0000 TC 25 20.9846 66.0296 1 1 294
1976240N21083 1976 101 NI AS NOT_NAMED 1976-09-03 09:00:00 TS 21.0103 65.9830 main 333 333 P________PP___ IO061976 21.0150 65.9775 -1 21.0150 65.9775 TC 25 21.0010 65.9941 1 0 0
1976240N21083 1976 101 NI AS NOT_NAMED 1976-09-03 12:00:00 TS 21.0000 66.0000 main 333 323 O________OO___ jtwc_io IO061976 21.0000 66.0000 -1 21.0000 66.0000 TC 25 21.0000 66.0000 1 2 129
1976240N21083 1976 101 NI AS NOT_NAMED 1976-09-03 15:00:00 TS 20.9178 66.1135 main 329 316 P________PP___ IO061976 20.9075 66.1201 -1 20.9075 66.1201 TC 25 20.9383 66.1004 1 3 124
1976240N21083 1976 101 NI AS NOT_NAMED 1976-09-03 18:00:00 TS 20.8191 66.2842 main 316 299 O________OP___ jtwc_io IO061976 20.8000 66.3000 -1 20.8000 66.3000 TC 25 20.8573 66.2527 1 4 116
1976240N21083 1976 101 NI AS NOT_NAMED 1976-09-03 21:00:00 TS 20.7525 66.4695 main 299 289 P________PP___ IO061976 20.7424 66.4775 -1 20.7424 66.4775 TC 25 20.7726 66.4536 1 4 107
1976240N21083 1976 101 NI AS NOT_NAMED 1976-09-04 00:00:00 TS 20.7000 66.7000 main 289 265 O________OO___ jtwc_io IO061976 20.7000 66.7000 -1 20.7000 66.7000 TC 25 20.7000 66.7000 1 5 103
1976240N21083 1976 101 NI AS NOT_NAMED 1976-09-04 03:00:00 TS 20.6446 66.9871 main 273 252 P________PP___ IO061976 20.6425 66.9775 -1 20.6425 66.9775 TC 25 20.6489 67.0063 1 6 99
1976240N21083 1976 101 NI AS NOT_NAMED 1976-09-04 06:00:00 TS 20.6044 67.3167 main 252 227 O________OP___ jtwc_io IO061976 20.6000 67.3000 -1 20.6000 67.3000 TC 25 20.6131 67.3501 1 6 95
1976240N21083 1976 101 NI AS NOT_NAMED 1976-09-04 09:00:00 TS 20.5936 67.6746 main 227 205 P________PP___ IO061976 20.5926 67.6650 -1 20.5926 67.6650 TC 25 20.5957 67.6938 1 6 90
1976240N21083 1976 101 NI AS NOT_NAMED 1976-09-04 12:00:00 TS 20.6000 68.0000 main 205 190 O________OO___ jtwc_io IO061976 20.6000 68.0000 -1 20.6000 68.0000 TC 25 20.6000 68.0000 1 5 92
1976240N21083 1976 101 NI AS NOT_NAMED 1976-09-04 15:00:00 TS 20.5723 68.2409 main 190 174 P________PP___ IO061976 20.5849 68.2300 -1 20.5849 68.2300 TC 25 20.5470 68.2626 1 4 93
1976240N21083 1976 101 NI AS NOT_NAMED 1976-09-04 18:00:00 TS 20.5758 68.4257 main 174 159 O________OP___ jtwc_io IO061976 20.6000 68.4000 -1 20.6000 68.4000 TC 25 20.5273 68.4770 1 3 84
1976240N21083 1976 101 NI AS NOT_NAMED 1976-09-04 21:00:00 TS 20.6097 68.5960 main 159 136 P________PP___ IO061976 20.6175 68.5800 -1 20.6175 68.5800 TC 30 20.5939 68.6279 1 3 49
1976240N21083 1976 101 NI AS NOT_NAMED 1976-09-05 00:00:00 TS 20.8000 68.7000 main 136 106 O________OO___ jtwc_io IO061976 20.8000 68.7000 -1 20.8000 68.7000 TC 35 20.8000 68.7000 2 7 11
1976240N21083 1976 101 NI AS NOT_NAMED 1976-09-05 03:00:00 TS 21.2813 68.7428 main 98 49 P________PP___ IO061976 21.2825 68.7522 -1 21.2825 68.7522 TC 35 21.2789 68.7241 2 11 359
1976240N21083 1976 101 NI AS NOT_NAMED 1976-09-05 06:00:00 TS 21.8948 68.6886 main 49 30 O________OP___ jtwc_io IO061976 21.9000 68.7000 -1 21.9000 68.7000 TC 35 21.8844 68.6657 2 12 351
1976240N21083 1976 101 NI AS NOT_NAMED 1976-09-05 09:00:00 TS 22.5058 68.5434 main 46 37 P________PP___ IO061976 22.5099 68.5528 -1 22.5099 68.5528 TC 35 22.4977 68.5244 2 12 342
1976240N21083 1976 101 NI AS NOT_NAMED 1976-09-05 12:00:00 TS 23.0000 68.3000 main 37 32 O________OO___ jtwc_io IO061976 23.0000 68.3000 -1 23.0000 68.3000 TC 35 23.0000 68.3000 2 9 325
1976240N21083 1976 101 NI AS NOT_NAMED 1976-09-05 15:00:00 TS 23.2305 67.9932 main 49 45 P________PP___ IO061976 23.2250 67.9798 -1 23.2250 67.9798 TC 35 23.2416 68.0200 2 7 297
1976240N21083 1976 101 NI AS NOT_NAMED 1976-09-05 18:00:00 TS 23.3191 67.6206 main 55 49 O________OP___ jtwc_io IO061976 23.3000 67.6000 -1 23.3000 67.6000 TC 35 23.3574 67.6619 2 7 282
1976240N21083 1976 101 NI AS NOT_NAMED 1976-09-05 21:00:00 TS 23.3747 67.2309 main 60 60 P________PP___ IO061976 23.3648 67.2223 -1 23.3648 67.2223 TC 35 23.3946 67.2480 2 8 276
1976240N21083 1976 101 NI AS NOT_NAMED 1976-09-06 00:00:00 TS 23.4000 66.8000 main 90 90 O________OO___ jtwc_io IO061976 23.4000 66.8000 -1 23.4000 66.8000 TC 35 23.4000 66.8000 2 8 275
1976240N21083 1976 101 NI AS NOT_NAMED 1976-09-06 03:00:00 TS 23.4554 66.3107 main 125 125 P________PP___ IO061976 23.4575 66.3076 -1 23.4575 66.3076 TC 30 23.4513 66.3170 2 9 276
1976240N21083 1976 101 NI AS NOT_NAMED 1976-09-06 06:00:00 TS 23.4937 65.8041 main 171 171 O________OP___ jtwc_io IO061976 23.5000 65.8000 -1 23.5000 65.8000 TC 25 23.4810 65.8123 2 9 273
1976240N21083 1976 101 NI AS NOT_NAMED 1976-09-06 09:00:00 TS 23.5034 65.3171 main 199 191 P________PP___ IO061976 23.5075 65.3124 -1 23.5075 65.3124 TC 25 23.4951 65.3264 2 8 270
1976240N21083 1976 101 NI AS NOT_NAMED 1976-09-06 12:00:00 TS 23.5000 64.9000 main 191 189 O________OO___ jtwc_io IO061976 23.5000 64.9000 -1 23.5000 64.9000 TC 25 23.5000 64.9000 1 6 270
1976240N21083 1976 101 NI AS NOT_NAMED 1976-09-06 15:00:00 TS 23.5033 64.6084 main 189 189 P________PP___ IO061976 23.4998 64.6200 -1 23.4998 64.6200 TC 25 23.5104 64.5853 1 5 271
1976240N21083 1976 101 NI AS NOT_NAMED 1976-09-06 18:00:00 TS 23.5047 64.3775 main 189 189 O________OP___ jtwc_io IO061976 23.5000 64.4000 -1 23.5000 64.4000 TC 25 23.5140 64.3325 1 4 270
1976240N21083 1976 101 NI AS NOT_NAMED 1976-09-06 21:00:00 TS 23.5035 64.1378 main 192 192 P________PP___ IO061976 23.5000 64.1500 -1 23.5000 64.1500 TC 25 23.5106 64.1134 1 4 269
1976240N21083 1976 101 NI AS NOT_NAMED 1976-09-07 00:00:00 TS 23.5000 63.9000 main 194 191 O________OO___ jtwc_io IO061976 23.5000 63.9000 -1 23.5000 63.9000 TC 25 23.5000 63.9000 1 5 270
1976240N21083 1976 101 NI AS NOT_NAMED 1976-09-07 03:00:00 TS 23.5017 63.6460 main 190 189 P________PP___ IO061976 23.5075 63.6500 -1 23.5075 63.6500 TC 25 23.4903 63.6379 1 5 269
1976240N21083 1976 101 NI AS NOT_NAMED 1976-09-07 06:00:00 TS 23.4908 63.3925 main 190 190 O________OP___ jtwc_io IO061976 23.5000 63.4000 -1 23.5000 63.4000 TC 25 23.4725 63.3776 1 5 264
1976240N21083 1976 101 NI AS NOT_NAMED 1976-09-07 09:00:00 TS 23.4528 63.1378 main 190 190 P________PP___ IO061976 23.4575 63.1425 -1 23.4575 63.1425 TC 25 23.4435 63.1285 1 5 259
1976240N21083 1976 101 NI AS NOT_NAMED 1976-09-07 12:00:00 TS 23.4000 62.9000 main 196 192 O________OO___ jtwc_io IO061976 23.4000 62.9000 -1 23.4000 62.9000 TC 25 23.4000 62.9000 1 4 256
1976240N21083 1976 101 NI AS NOT_NAMED 1976-09-07 15:00:00 TS 23.3513 62.6939 main 192 192 P________PP___ IO061976 23.3575 62.6850 -1 23.3575 62.6850 TC 25 23.3391 62.7116 1 4 252
1976240N21083 1976 101 NI AS NOT_NAMED 1976-09-07 18:00:00 TS 23.2882 62.5142 main 201 201 O________OP___ jtwc_io IO061976 23.3000 62.5000 -1 23.3000 62.5000 TC 25 23.2646 62.5426 1 3 243
1976240N21083 1976 101 NI AS NOT_NAMED 1976-09-07 21:00:00 TS 23.1942 62.3641 main 210 207 P________PP___ IO061976 23.1999 62.3575 -1 23.1999 62.3575 TC 25 23.1829 62.3772 1 3 237
1976240N21083 1976 101 NI AS NOT_NAMED 1976-09-08 00:00:00 TS 23.1000 62.2000 main 216 213 O________OO___ jtwc_io IO061976 23.1000 62.2000 -1 23.1000 62.2000 TC 25 23.1000 62.2000 1 4 248
1976240N21083 1976 101 NI AS NOT_NAMED 1976-09-08 03:00:00 TS 23.0485 61.9669 main 224 206 P________PP___ IO061976 23.0501 61.9576 -1 23.0501 61.9576 TC 25 23.0453 61.9855 1 5 257
1976240N21083 1976 101 NI AS NOT_NAMED 1976-09-08 06:00:00 TS 22.9958 61.7193 main 206 183 O________OP___ jtwc_io IO061976 23.0000 61.7000 -1 23.0000 61.7000 TC 25 22.9875 61.7579 1 4 252
1976240N21083 1976 101 NI AS NOT_NAMED 1976-09-08 09:00:00 TS 22.9136 61.5038 main 183 160 P________PP___ IO061976 22.9149 61.4925 -1 22.9149 61.4925 TC 25 22.9110 61.5262 1 4 243
1976240N21083 1976 101 NI AS NOT_NAMED 1976-09-08 12:00:00 TS 22.8000 61.3000 main 160 137 O________OO___ jtwc_io IO061976 22.8000 61.3000 -1 22.8000 61.3000 TC 25 22.8000 61.3000 1 5 236
1976240N21083 1976 101 NI AS NOT_NAMED 1976-09-08 15:00:00 TS 22.6629 61.0955 main 137 113 P________PP___ IO061976 22.6725 61.1001 -1 22.6725 61.1001 TC 25 22.6438 61.0865 1 5 230
1976240N21083 1976 101 NI AS NOT_NAMED 1976-09-08 18:00:00 TS 22.4834 60.8948 main 113 92 O________OP___ jtwc_io IO061976 22.5000 60.9000 -1 22.5000 60.9000 TC 25 22.4501 60.8843 1 6 222
1976240N21083 1976 101 NI AS NOT_NAMED 1976-09-08 21:00:00 TS 22.2555 60.6966 main 92 72 P________PP___ IO061976 22.2676 60.6998 -1 22.2676 60.6998 TC 25 22.2314 60.6900 1 6 217
1976240N21083 1976 101 NI AS NOT_NAMED 1976-09-09 00:00:00 TS 22.0000 60.5000 main 75 O________OO___ jtwc_io IO061976 22.0000 60.5000 -1 22.0000 60.5000 TC 25 22.0000 60.5000 6 6 216

IBTrACS Databaseについて

本データベースは、米国NOAAが公開する1842年以降の世界の熱帯低気圧のベストトラックデータアーカイブInternational Best Track Archive for Climate Stewardship (IBTrACS)を、ウェブで閲覧しやすい形式に変換したものです。

最終更新日:2021-10-08